^^
Station Historical Data
Daily Summary for April 17, 2018 Units:  Both    English   Metric
« Previous Day
Next Day »
Daily Weekly Monthly Yearly Custom
  High: Low: Average:
Temperature: TemperatureF °F /  -17.8 °C 36.1 °F /  2.3 °C 40.6 °F /  4.8 °C
Dew Point: DewpointF °F /  -17.8 °C 27.6 °F /  -2.4 °C 31.5 °F /  -0.3 °C
Humidity: Humidity% 57% 69%
Wind Speed: WindSpeedMPHmph /  0km/h - 3.2mph /  5.1km/h
Wind Gust: WindSpeedGustMPHmph /  0km/h - -
Wind- - SW
Pressure: PressureIn in /  0 hPa 29.61 in /  1002.6 hPa -
Precipitation: 0.00 in /  0 mm    
Historical Graphs
 
 
Tabular Data for April 17, 2018
Time Temperature Dew Point Pressure Wind Wind Speed Wind Gust Humidity Rainfall Rate (Hourly) Conditions
TemperatureF °F /  -17.8 °C DewpointF °F /  -17.8 °C PressureInin /  0hPa Calm     Humidity% HourlyPrecipInin /  0mm Conditions
00:04 44.6 °F /  7 °C 38.1 °F /  3.4 °C 29.61in /  1002.6hPa WSW 3.0mph /  4.8km/h 14.0mph /  22.5km/h 78% 0.00in /  0mm RA
00:19 44.3 °F /  6.8 °C 37.6 °F /  3.1 °C 29.61in /  1002.6hPa WSW 3.0mph /  4.8km/h 20.0mph /  32.2km/h 77% 0.00in /  0mm SCT
00:34 44.1 °F /  6.7 °C 36.0 °F /  2.2 °C 29.62in /  1002.9hPa SW 1.0mph /  1.6km/h 12.0mph /  19.3km/h 73% 0.00in /  0mm SCT
00:49 43.8 °F /  6.6 °C 35.4 °F /  1.9 °C 29.62in /  1002.9hPa South 1.0mph /  1.6km/h 14.0mph /  22.5km/h 72% 0.00in /  0mm SCT
01:04 43.3 °F /  6.3 °C 35.2 °F /  1.8 °C 29.62in /  1002.9hPa WSW 2.0mph /  3.2km/h 8.0mph /  12.9km/h 73% 0.00in /  0mm SCT
01:19 42.9 °F /  6.1 °C 35.2 °F /  1.8 °C 29.62in /  1002.9hPa SSW 2.0mph /  3.2km/h 6.0mph /  9.7km/h 74% 0.00in /  0mm SCT
01:34 43.0 °F /  6.1 °C 34.9 °F /  1.6 °C 29.62in /  1002.9hPa WSW 3.0mph /  4.8km/h 10.0mph /  16.1km/h 73% 0.00in /  0mm SCT
01:49 42.9 °F /  6.1 °C 34.8 °F /  1.6 °C 29.61in /  1002.6hPa WSW 2.0mph /  3.2km/h 9.0mph /  14.5km/h 73% 0.00in /  0mm SCT
02:04 42.8 °F /  6 °C 34.7 °F /  1.5 °C 29.62in /  1002.9hPa WSW 1.0mph /  1.6km/h 10.0mph /  16.1km/h 73% 0.00in /  0mm OVC
02:19 42.8 °F /  6 °C 34.4 °F /  1.3 °C 29.63in /  1003.3hPa SW 2.0mph /  3.2km/h 16.0mph /  25.7km/h 72% 0.00in /  0mm OVC
02:34 42.7 °F /  5.9 °C 33.9 °F /  1.1 °C 29.63in /  1003.3hPa WSW 6.0mph /  9.7km/h 12.0mph /  19.3km/h 71% 0.00in /  0mm OVC
02:49 42.5 °F /  5.8 °C 33.4 °F /  0.8 °C 29.63in /  1003.3hPa SSW 2.0mph /  3.2km/h 10.0mph /  16.1km/h 70% 0.00in /  0mm OVC
03:04 42.3 °F /  5.7 °C 33.2 °F /  0.7 °C 29.62in /  1002.9hPa WSW 3.0mph /  4.8km/h 13.0mph /  20.9km/h 70% 0.00in /  0mm BKN
03:19 42.1 °F /  5.6 °C 33.7 °F /  0.9 °C 29.62in /  1002.9hPa Calm   8.0mph /  12.9km/h 72% 0.00in /  0mm BKN
03:34 41.9 °F /  5.5 °C 33.2 °F /  0.7 °C 29.63in /  1003.3hPa SSW 1.0mph /  1.6km/h 14.0mph /  22.5km/h 71% 0.00in /  0mm BKN
03:49 41.7 °F /  5.4 °C 33.3 °F /  0.7 °C 29.63in /  1003.3hPa SW 3.0mph /  4.8km/h 12.0mph /  19.3km/h 72% 0.00in /  0mm BKN
04:04 41.6 °F /  5.3 °C 32.9 °F /  0.5 °C 29.63in /  1003.3hPa SW 2.0mph /  3.2km/h 13.0mph /  20.9km/h 71% 0.00in /  0mm FEW
04:19 41.4 °F /  5.2 °C 33.0 °F /  0.6 °C 29.63in /  1003.3hPa SW 2.0mph /  3.2km/h 9.0mph /  14.5km/h 72% 0.00in /  0mm FEW
04:34 41.2 °F /  5.1 °C 33.9 °F /  1.1 °C 29.63in /  1003.3hPa SSW 2.0mph /  3.2km/h 7.0mph /  11.3km/h 75% 0.00in /  0mm FEW
04:49 40.8 °F /  4.9 °C 34.1 °F /  1.2 °C 29.63in /  1003.3hPa SW 5.0mph /  8km/h 8.0mph /  12.9km/h 77% 0.00in /  0mm FEW
05:04 40.6 °F /  4.8 °C 34.0 °F /  1.1 °C 29.63in /  1003.3hPa SW 2.0mph /  3.2km/h 9.0mph /  14.5km/h 77% 0.00in /  0mm FEW
05:19 40.6 °F /  4.8 °C 34.0 °F /  1.1 °C 29.63in /  1003.3hPa SW 3.0mph /  4.8km/h 12.0mph /  19.3km/h 77% 0.00in /  0mm FEW
05:34 40.1 °F /  4.5 °C 34.7 °F /  1.5 °C 29.63in /  1003.3hPa SW 2.0mph /  3.2km/h 9.0mph /  14.5km/h 81% 0.00in /  0mm FEW
05:49 39.2 °F /  4 °C 35.0 °F /  1.7 °C 29.63in /  1003.3hPa SW 6.0mph /  9.7km/h 12.0mph /  19.3km/h 85% 0.00in /  0mm FEW
06:04 38.7 °F /  3.7 °C 34.9 °F /  1.6 °C 29.64in /  1003.6hPa SSW 3.0mph /  4.8km/h 14.0mph /  22.5km/h 86% 0.00in /  0mm SCT
06:19 38.7 °F /  3.7 °C 34.6 °F /  1.4 °C 29.64in /  1003.6hPa SW 2.0mph /  3.2km/h 9.0mph /  14.5km/h 85% 0.00in /  0mm SCT
06:34 38.7 °F /  3.7 °C 33.7 °F /  0.9 °C 29.64in /  1003.6hPa SW 3.0mph /  4.8km/h 10.0mph /  16.1km/h 82% 0.00in /  0mm SCT
06:49 39.0 °F /  3.9 °C 32.7 °F /  0.4 °C 29.65in /  1003.9hPa South 2.0mph /  3.2km/h 10.0mph /  16.1km/h 78% 0.00in /  0mm SCT
07:04 39.1 °F /  3.9 °C 32.5 °F /  0.3 °C 29.65in /  1003.9hPa WSW 2.0mph /  3.2km/h 12.0mph /  19.3km/h 77% 0.00in /  0mm BKN
07:19 39.1 °F /  3.9 °C 32.2 °F /  0.1 °C 29.66in /  1004.3hPa SSW 2.0mph /  3.2km/h 8.0mph /  12.9km/h 76% 0.00in /  0mm BKN
07:34 39.3 °F /  4.1 °C 33.0 °F /  0.6 °C 29.66in /  1004.3hPa SW 6.0mph /  9.7km/h 12.0mph /  19.3km/h 78% 0.00in /  0mm BKN
07:49 39.3 °F /  4.1 °C 33.7 °F /  0.9 °C 29.67in /  1004.6hPa WSW 3.0mph /  4.8km/h 10.0mph /  16.1km/h 80% 0.00in /  0mm BKN
08:04 39.6 °F /  4.2 °C 34.2 °F /  1.2 °C 29.67in /  1004.6hPa WSW 5.0mph /  8km/h 8.0mph /  12.9km/h 81% 0.00in /  0mm BKN
08:19 39.9 °F /  4.4 °C 34.9 °F /  1.6 °C 29.67in /  1004.6hPa WSW 2.0mph /  3.2km/h 8.0mph /  12.9km/h 82% 0.00in /  0mm BKN
08:34 40.0 °F /  4.4 °C 33.7 °F /  0.9 °C 29.67in /  1004.6hPa SW 3.0mph /  4.8km/h 8.0mph /  12.9km/h 78% 0.00in /  0mm BKN
08:49 40.2 °F /  4.6 °C 32.9 °F /  0.5 °C 29.67in /  1004.6hPa WSW 2.0mph /  3.2km/h 12.0mph /  19.3km/h 75% 0.00in /  0mm BKN
09:04 40.4 °F /  4.7 °C 32.4 °F /  0.2 °C 29.67in /  1004.6hPa SW 6.0mph /  9.7km/h 12.0mph /  19.3km/h 73% 0.00in /  0mm -RA
09:19 40.8 °F /  4.9 °C 32.8 °F /  0.4 °C 29.68in /  1005hPa WSW 7.0mph /  11.3km/h 13.0mph /  20.9km/h 73% 0.00in /  0mm -RA
09:34 41.1 °F /  5.1 °C 32.4 °F /  0.2 °C 29.67in /  1004.6hPa SW 3.0mph /  4.8km/h 15.0mph /  24.1km/h 71% 0.00in /  0mm -RA
09:49 41.6 °F /  5.3 °C 31.8 °F /  -0.1 °C 29.67in /  1004.6hPa WSW 6.0mph /  9.7km/h 12.0mph /  19.3km/h 68% 0.00in /  0mm -RA
10:04 41.9 °F /  5.5 °C 32.1 °F /  0.1 °C 29.67in /  1004.6hPa WSW 3.0mph /  4.8km/h 9.0mph /  14.5km/h 68% 0.00in /  0mm -RA
10:19 42.0 °F /  5.6 °C 31.5 °F /  -0.3 °C 29.67in /  1004.6hPa WSW 1.0mph /  1.6km/h 13.0mph /  20.9km/h 66% 0.00in /  0mm -RA
10:34 42.7 °F /  5.9 °C 31.3 °F /  -0.4 °C 29.67in /  1004.6hPa SW 6.0mph /  9.7km/h 14.0mph /  22.5km/h 64% 0.00in /  0mm -RA
10:49 43.4 °F /  6.3 °C 31.6 °F /  -0.2 °C 29.67in /  1004.6hPa WSW 7.0mph /  11.3km/h 13.0mph /  20.9km/h 63% 0.00in /  0mm -RA
11:04 43.9 °F /  6.6 °C 31.7 °F /  -0.2 °C 29.66in /  1004.3hPa SW 6.0mph /  9.7km/h 13.0mph /  20.9km/h 62% 0.00in /  0mm BKN
11:19 44.2 °F /  6.8 °C 31.6 °F /  -0.2 °C 29.66in /  1004.3hPa SW 5.0mph /  8km/h 12.0mph /  19.3km/h 61% 0.00in /  0mm BKN
11:34 44.0 °F /  6.7 °C 31.0 °F /  -0.6 °C 29.65in /  1003.9hPa SW 5.0mph /  8km/h 13.0mph /  20.9km/h 60% 0.00in /  0mm BKN
11:49 44.1 °F /  6.7 °C 31.1 °F /  -0.5 °C 29.65in /  1003.9hPa WSW 2.0mph /  3.2km/h 15.0mph /  24.1km/h 60% 0.00in /  0mm BKN
12:04 43.8 °F /  6.6 °C 30.8 °F /  -0.7 °C 29.65in /  1003.9hPa WSW 3.0mph /  4.8km/h 16.0mph /  25.7km/h 60% 0.00in /  0mm BKN
12:19 43.9 °F /  6.6 °C 30.4 °F /  -0.9 °C 29.65in /  1003.9hPa WSW 7.0mph /  11.3km/h 13.0mph /  20.9km/h 59% 0.00in /  0mm BKN
12:34 44.6 °F /  7 °C 31.1 °F /  -0.5 °C 29.64in /  1003.6hPa WSW 8.0mph /  12.9km/h 12.0mph /  19.3km/h 59% 0.00in /  0mm BKN
12:49 45.2 °F /  7.3 °C 31.3 °F /  -0.4 °C 29.64in /  1003.6hPa SW 6.0mph /  9.7km/h 14.0mph /  22.5km/h 58% 0.00in /  0mm BKN
13:04 44.3 °F /  6.8 °C 30.5 °F /  -0.8 °C 29.64in /  1003.6hPa SSW 6.0mph /  9.7km/h 16.0mph /  25.7km/h 58% 0.00in /  0mm BKN
13:19 43.8 °F /  6.6 °C 31.2 °F /  -0.4 °C 29.64in /  1003.6hPa WSW 2.0mph /  3.2km/h 12.0mph /  19.3km/h 61% 0.00in /  0mm BKN
13:34 44.3 °F /  6.8 °C 30.0 °F /  -1.1 °C 29.64in /  1003.6hPa WSW 5.0mph /  8km/h 13.0mph /  20.9km/h 57% 0.00in /  0mm BKN
13:49 43.7 °F /  6.5 °C 29.5 °F /  -1.4 °C 29.64in /  1003.6hPa WSW 5.0mph /  8km/h 15.0mph /  24.1km/h 57% 0.00in /  0mm BKN
14:04 44.2 °F /  6.8 °C 29.9 °F /  -1.2 °C 29.63in /  1003.3hPa SW 3.0mph /  4.8km/h 12.0mph /  19.3km/h 57% 0.00in /  0mm BKN
14:19 44.0 °F /  6.7 °C 30.2 °F /  -1 °C 29.63in /  1003.3hPa SW 6.0mph /  9.7km/h 12.0mph /  19.3km/h 58% 0.00in /  0mm BKN
14:34 43.1 °F /  6.2 °C 30.1 °F /  -1.1 °C 29.63in /  1003.3hPa SW 3.0mph /  4.8km/h 14.0mph /  22.5km/h 60% 0.00in /  0mm BKN
14:49 43.1 °F /  6.2 °C 30.1 °F /  -1.1 °C 29.64in /  1003.6hPa SW 5.0mph /  8km/h 15.0mph /  24.1km/h 60% 0.00in /  0mm BKN
15:04 42.9 °F /  6.1 °C 29.5 °F /  -1.4 °C 29.64in /  1003.6hPa West 7.0mph /  11.3km/h 15.0mph /  24.1km/h 59% 0.00in /  0mm BKN
15:19 42.8 °F /  6 °C 29.5 °F /  -1.4 °C 29.64in /  1003.6hPa WSW 2.0mph /  3.2km/h 15.0mph /  24.1km/h 59% 0.00in /  0mm BKN
15:34 43.1 °F /  6.2 °C 29.7 °F /  -1.3 °C 29.63in /  1003.3hPa SSW 3.0mph /  4.8km/h 9.0mph /  14.5km/h 59% 0.00in /  0mm BKN
15:49 42.7 °F /  5.9 °C 29.0 °F /  -1.7 °C 29.64in /  1003.6hPa WSW 3.0mph /  4.8km/h 15.0mph /  24.1km/h 58% 0.00in /  0mm BKN
16:04 42.0 °F /  5.6 °C 28.7 °F /  -1.8 °C 29.64in /  1003.6hPa SW 8.0mph /  12.9km/h 18.0mph /  29km/h 59% 0.00in /  0mm BKN
16:19 41.8 °F /  5.4 °C 28.9 °F /  -1.7 °C 29.63in /  1003.3hPa WSW 5.0mph /  8km/h 18.0mph /  29km/h 60% 0.00in /  0mm BKN
16:34 41.8 °F /  5.4 °C 28.9 °F /  -1.7 °C 29.64in /  1003.6hPa SW 5.0mph /  8km/h 15.0mph /  24.1km/h 60% 0.00in /  0mm BKN
16:49 41.9 °F /  5.5 °C 29.8 °F /  -1.2 °C 29.64in /  1003.6hPa West 2.0mph /  3.2km/h 9.0mph /  14.5km/h 62% 0.00in /  0mm BKN
17:04 42.1 °F /  5.6 °C 29.6 °F /  -1.3 °C 29.64in /  1003.6hPa SW 2.0mph /  3.2km/h 9.0mph /  14.5km/h 61% 0.00in /  0mm BKN
17:19 42.5 °F /  5.8 °C 29.6 °F /  -1.3 °C 29.64in /  1003.6hPa SW 2.0mph /  3.2km/h 6.0mph /  9.7km/h 60% 0.00in /  0mm BKN
17:34 42.4 °F /  5.8 °C 29.5 °F /  -1.4 °C 29.65in /  1003.9hPa WSW 3.0mph /  4.8km/h 14.0mph /  22.5km/h 60% 0.00in /  0mm BKN
17:49 41.9 °F /  5.5 °C 28.6 °F /  -1.9 °C 29.65in /  1003.9hPa West 2.0mph /  3.2km/h 13.0mph /  20.9km/h 59% 0.00in /  0mm BKN
18:04 41.7 °F /  5.4 °C 28.4 °F /  -2 °C 29.65in /  1003.9hPa SSW 2.0mph /  3.2km/h 9.0mph /  14.5km/h 59% 0.00in /  0mm BKN
18:19 41.6 °F /  5.3 °C 28.8 °F /  -1.8 °C 29.66in /  1004.3hPa SW 5.0mph /  8km/h 12.0mph /  19.3km/h 60% 0.00in /  0mm BKN
18:34 40.2 °F /  4.6 °C 30.9 °F /  -0.6 °C 29.67in /  1004.6hPa WSW 5.0mph /  8km/h 12.0mph /  19.3km/h 69% 0.00in /  0mm BKN
18:49 38.4 °F /  3.6 °C 31.5 °F /  -0.3 °C 29.68in /  1005hPa SW 3.0mph /  4.8km/h 17.0mph /  27.4km/h 76% 0.00in /  0mm BKN
19:04 38.1 °F /  3.4 °C 31.9 °F /  -0.1 °C 29.69in /  1005.3hPa SW 7.0mph /  11.3km/h 15.0mph /  24.1km/h 78% 0.00in /  0mm -RA
19:19 37.7 °F /  3.2 °C 30.5 °F /  -0.8 °C 29.69in /  1005.3hPa SW 3.0mph /  4.8km/h 16.0mph /  25.7km/h 75% 0.00in /  0mm -RA
19:34 38.0 °F /  3.3 °C 30.8 °F /  -0.7 °C 29.69in /  1005.3hPa SSW 2.0mph /  3.2km/h 7.0mph /  11.3km/h 75% 0.00in /  0mm -RA
19:49 38.3 °F /  3.5 °C 30.1 °F /  -1.1 °C 29.70in /  1005.6hPa SSW 1.0mph /  1.6km/h 10.0mph /  16.1km/h 72% 0.00in /  0mm -RA
20:04 38.3 °F /  3.5 °C 30.1 °F /  -1.1 °C 29.70in /  1005.6hPa SW 5.0mph /  8km/h 9.0mph /  14.5km/h 72% 0.00in /  0mm OVC
20:19 38.3 °F /  3.5 °C 30.1 °F /  -1.1 °C 29.71in /  1006hPa WSW 1.0mph /  1.6km/h 12.0mph /  19.3km/h 72% 0.00in /  0mm OVC
20:34 38.3 °F /  3.5 °C 30.1 °F /  -1.1 °C 29.72in /  1006.3hPa WSW 2.0mph /  3.2km/h 9.0mph /  14.5km/h 72% 0.00in /  0mm OVC
20:49 38.2 °F /  3.4 °C 30.3 °F /  -0.9 °C 29.72in /  1006.3hPa WSW 3.0mph /  4.8km/h 10.0mph /  16.1km/h 73% 0.00in /  0mm OVC
21:04 37.7 °F /  3.2 °C 31.2 °F /  -0.4 °C 29.73in /  1006.7hPa Calm   13.0mph /  20.9km/h 77% 0.00in /  0mm -RA
21:19 37.1 °F /  2.8 °C 31.5 °F /  -0.3 °C 29.73in /  1006.7hPa Calm   8.0mph /  12.9km/h 80% 0.00in /  0mm -RA
21:34 36.6 °F /  2.6 °C 31.6 °F /  -0.2 °C 29.74in /  1007hPa Calm   4.0mph /  6.4km/h 82% 0.00in /  0mm -RA
21:49 36.8 °F /  2.7 °C 31.2 °F /  -0.4 °C 29.74in /  1007hPa Calm   9.0mph /  14.5km/h 80% 0.00in /  0mm -RA
22:04 37.1 °F /  2.8 °C 30.9 °F /  -0.6 °C 29.74in /  1007hPa WSW 5.0mph /  8km/h 9.0mph /  14.5km/h 78% 0.00in /  0mm -RA
22:19 37.2 °F /  2.9 °C 30.0 °F /  -1.1 °C 29.74in /  1007hPa SW 2.0mph /  3.2km/h 9.0mph /  14.5km/h 75% 0.00in /  0mm -RA
22:34 37.3 °F /  2.9 °C 29.8 °F /  -1.2 °C 29.74in /  1007hPa SW 2.0mph /  3.2km/h 8.0mph /  12.9km/h 74% 0.00in /  0mm -RA
22:49 37.2 °F /  2.9 °C 30.0 °F /  -1.1 °C 29.74in /  1007hPa SW 1.0mph /  1.6km/h 7.0mph /  11.3km/h 75% 0.00in /  0mm -RA
23:04 37.1 °F /  2.8 °C 29.9 °F /  -1.2 °C 29.74in /  1007hPa SW 1.0mph /  1.6km/h 8.0mph /  12.9km/h 75% 0.00in /  0mm BKN
23:19 37.5 °F /  3.1 °C 29.6 °F /  -1.3 °C 29.75in /  1007.3hPa SW 2.0mph /  3.2km/h 12.0mph /  19.3km/h 73% 0.00in /  0mm BKN
23:34 36.7 °F /  2.6 °C 29.9 °F /  -1.2 °C 29.75in /  1007.3hPa SW 5.0mph /  8km/h 12.0mph /  19.3km/h 76% 0.00in /  0mm BKN
23:49 36.1 °F /  2.3 °C 27.6 °F /  -2.4 °C 29.75in /  1007.3hPa SW 1.0mph /  1.6km/h 12.0mph /  19.3km/h 71% 0.00in /  0mm BKN
TarryTown NY Weather
Compliments of Weather Underground - 1.5 mb